0CA6 weather

Emory Ranch Airport
Ocotillo, California, United States

Public forecast

Using degrees Fahrenheit for public forecast. Weather courtesy of forecast.io.

Closest aviation weather report (METAR) to Emory Ranch Airport

Report is more than 2 hours old.

Closest report is El Centro NAF Airport (Vraciu Field), 18.0 nm (33.4 km) ENE. Retrieved 2020/02/17 06:56 UTC (5 hours ago):

KNJK 170656Z AUTO 06003KT 10SM CLR 13/02 A2993 RMK AO2 SLP151 T01280017

Closest aviation forecast (TAF) to Emory Ranch Airport

Forecast is more than 12 hours old.

Closest forecast is El Centro NAF Airport (Vraciu Field), 18.0 nm (33.4 km) ENE. Retrieved 2016/08/04 23:15 UTC (4 years ago):

TAF KNJK 032300Z 0323/0423 VRB06KT 9999 FEW080 FEW280 TEMPO 0323/0405 14010KT FM040600 VRB06KT FEW280 QNH2968INS AUTOMATED SENSOR METWATCH 0406 TIL 0413 TX41/0323Z TN28/0412Z FS30081